Weather History for Michigan City, IN

Change the Weather History Date:

Saturday, July 27, 2013

  Actual Average (KVPZ) Record (KVPZ)
Temperature  
Mean Temperature 60 °F 72 °F  
Max Temperature 66 °F 82 °F 90 °F (2011)
Min Temperature 55 °F 62 °F 54 °F (2005)
Degree Days  
Heating Degree Days 4 0  
Month to date heating degree days 0  
Since 1 June heating degree days 41  
Since 1 July heating degree days 0  
Cooling Degree Days 0 7  
Month to date cooling degree days 212  
Year to date cooling degree days 423  
Since 1 June cooling degree days 376  
Growing Degree Days 10 (Base 50)    
Moisture  
Dew Point 54 °F    
Average Humidity 77    
Maximum Humidity 100    
Minimum Humidity 52    
Precipitation  
Precipitation 0.00 in 0.12 in 0.91 in (2003)
Month to date precipitation 3.80  
Year to date precipitation 20.69  
Sea Level Pressure  
Sea Level Pressure 29.89 in    
Wind  
Wind Speed 5 mph (NW)    
Max Wind Speed 13 mph    
Max Gust Speed 20 mph    
Visibility 8 miles    
Events Fog , Rain    
T = Trace of Precipitation, MM = Missing Value Source: NWS Daily Summary

Daily Weather History Graph

Daily Weather History Graph

Search for Another Location

Airport:

Trip Planner

Search our weather history database for the weather conditions in past years. The results will help you decide how hot, cold, wet, or windy it might be!

Date:

Astronomy

Jul. 27, 2013 Rise Set
Actual Time 5:36 AM CDT 8:10 PM CDT
Civil Twilight 5:04 AM CDT 8:41 PM CDT
Nautical Twilight 4:25 AM CDT 9:21 PM CDT
Astronomical Twilight 3:40 AM CDT 10:06 PM CDT
Moon 10:51 PM CDT 11:22 AM CDT
Length of Visible Light 15h 36m
Length of Day
14h 33m
Waning Gibbous, 70% of the Moon is Illuminated
Jul 27
Waning Gibbous
Jul 29
Last Quarter
Aug 6
New
Aug 14
First Quarter
Aug 20
Full

Hourly Weather History & Observations

Time (CDT) Temp. Dew Point Humidity Pressure Visibility Wind Dir Wind Speed Gust Speed Precip Events Conditions
12:15 AM 64.4 °F 62.6 °F 94% 29.88 in 10.0 mi SSW 3.5 mph - N/A   Mostly Cloudy
12:35 AM 64.4 °F 62.6 °F 94% 29.87 in 10.0 mi SSW 3.5 mph - N/A   Scattered Clouds
12:55 AM 62.6 °F 60.8 °F 94% 29.87 in 10.0 mi SW 3.5 mph - N/A   Clear
1:15 AM 62.6 °F 60.8 °F 94% 29.87 in 7.0 mi SW 3.5 mph - N/A   Clear
1:35 AM 62.6 °F 60.8 °F 94% 29.87 in 7.0 mi Calm Calm - N/A   Clear
1:55 AM 62.6 °F 60.8 °F 94% 29.86 in 3.0 mi Calm Calm - N/A   Clear
2:15 AM 62.6 °F 60.8 °F 94% 29.86 in 2.5 mi SSW 4.6 mph - N/A   Clear
2:35 AM 60.8 °F 60.8 °F 100% 29.86 in 2.5 mi Calm Calm - N/A   Clear
2:55 AM 62.6 °F 60.8 °F 94% 29.86 in 3.0 mi Calm Calm - N/A   Clear
3:15 AM 60.8 °F 60.8 °F 100% 29.86 in 1.0 mi Calm Calm - N/A   Mostly Cloudy
3:35 AM 60.8 °F 60.8 °F 100% 29.86 in 0.2 mi Calm Calm - N/A Fog Fog
3:55 AM 60.8 °F 60.8 °F 100% 29.86 in 0.2 mi Calm Calm - N/A Fog Fog
4:15 AM 59.0 °F 59.0 °F 100% 29.86 in 0.2 mi Calm Calm - N/A Fog Fog
4:35 AM 59.0 °F 59.0 °F 100% 29.87 in 0.2 mi Calm Calm - N/A Fog Fog
4:55 AM 59.0 °F 57.2 °F 94% 29.87 in 0.2 mi Calm Calm - N/A Fog Fog
5:15 AM 57.2 °F 57.2 °F 100% 29.87 in 0.8 mi Calm Calm - N/A   Overcast
5:35 AM 59.0 °F 59.0 °F 100% 29.87 in 10.0 mi Calm Calm - N/A   Mostly Cloudy
5:55 AM 60.8 °F 59.0 °F 94% 29.87 in 7.0 mi Calm Calm - N/A   Overcast
6:15 AM 60.8 °F 60.8 °F 100% 29.87 in 10.0 mi North 5.8 mph - N/A   Mostly Cloudy
6:35 AM 60.8 °F 60.8 °F 100% 29.88 in 10.0 mi NNW 4.6 mph - N/A   Scattered Clouds
6:55 AM 62.6 °F 60.8 °F 94% 29.88 in 10.0 mi North 8.1 mph - N/A   Mostly Cloudy
7:15 AM 62.6 °F 59.0 °F 88% 29.88 in 10.0 mi North 5.8 mph - N/A   Mostly Cloudy
7:35 AM 64.4 °F 60.8 °F 88% 29.88 in 10.0 mi NNW 4.6 mph - N/A   Mostly Cloudy
7:55 AM 66.2 °F 60.8 °F 83% 29.88 in 10.0 mi NNW 8.1 mph - N/A   Mostly Cloudy
8:15 AM 66.2 °F 60.8 °F 83% 29.88 in 10.0 mi NNW 12.7 mph 16.1 mph N/A   Mostly Cloudy
8:35 AM 64.4 °F 59.0 °F 83% 29.88 in 10.0 mi North 6.9 mph 16.1 mph N/A   Overcast
8:55 AM 64.4 °F 59.0 °F 83% 29.88 in 10.0 mi North 8.1 mph 17.3 mph N/A   Overcast
9:15 AM 64.4 °F 59.0 °F 83% 29.88 in 10.0 mi North 8.1 mph - N/A   Overcast
9:35 AM 64.4 °F 59.0 °F 83% 29.87 in 10.0 mi North 8.1 mph - N/A   Overcast
9:55 AM 64.4 °F 57.2 °F 77% 29.87 in 10.0 mi NNW 12.7 mph - N/A   Overcast
10:15 AM 64.4 °F 55.4 °F 73% 29.87 in 10.0 mi North 12.7 mph 16.1 mph N/A   Overcast
10:35 AM 62.6 °F 55.4 °F 77% 29.88 in 10.0 mi NNW 10.4 mph - N/A Rain Light Rain
10:55 AM 62.6 °F 59.0 °F 88% 29.88 in 10.0 mi North 5.8 mph - N/A Rain Light Rain
11:15 AM 62.6 °F 59.0 °F 88% 29.88 in 10.0 mi NNW 5.8 mph - N/A   Overcast
11:35 AM 62.6 °F 57.2 °F 82% 29.88 in 10.0 mi NW 5.8 mph - N/A   Overcast
11:55 AM 62.6 °F 57.2 °F 82% 29.88 in 10.0 mi NW 6.9 mph - N/A   Overcast
12:15 PM 60.8 °F 55.4 °F 82% 29.89 in 10.0 mi NW 8.1 mph 16.1 mph N/A   Overcast
12:35 PM 60.8 °F 55.4 °F 82% 29.89 in 10.0 mi WNW 11.5 mph 16.1 mph N/A   Overcast
12:55 PM 60.8 °F 53.6 °F 77% 29.89 in 10.0 mi NW 9.2 mph 17.3 mph N/A   Overcast
1:15 PM 62.6 °F 53.6 °F 72% 29.89 in 10.0 mi NNW 10.4 mph - N/A   Overcast
1:35 PM 60.8 °F 53.6 °F 77% 29.90 in 10.0 mi NW 8.1 mph - N/A   Overcast
1:55 PM 62.6 °F 53.6 °F 72% 29.89 in 10.0 mi NW 9.2 mph - N/A   Overcast
2:15 PM 64.4 °F 53.6 °F 68% 29.90 in 10.0 mi NNW 12.7 mph 19.6 mph N/A   Overcast
2:35 PM 62.6 °F 50.0 °F 63% 29.90 in 10.0 mi NW 10.4 mph 16.1 mph N/A   Overcast
2:55 PM 62.6 °F 51.8 °F 68% 29.90 in 10.0 mi NW 10.4 mph 16.1 mph N/A   Overcast
3:15 PM 60.8 °F 50.0 °F 68% 29.90 in 10.0 mi NW 8.1 mph - N/A   Overcast
3:35 PM 60.8 °F 50.0 °F 68% 29.90 in 10.0 mi NNW 8.1 mph - N/A   Overcast
3:55 PM 60.8 °F 50.0 °F 68% 29.91 in 10.0 mi NW 8.1 mph 16.1 mph N/A   Overcast
4:15 PM 62.6 °F 48.2 °F 59% 29.91 in 10.0 mi NW 10.4 mph 19.6 mph N/A   Overcast
4:35 PM 60.8 °F 48.2 °F 63% 29.90 in 10.0 mi WNW 11.5 mph 17.3 mph N/A   Overcast
4:55 PM 62.6 °F 50.0 °F 63% 29.90 in 10.0 mi NW 6.9 mph - N/A   Overcast
5:15 PM 60.8 °F 48.2 °F 63% 29.91 in 10.0 mi NW 5.8 mph - N/A   Overcast
5:35 PM 60.8 °F 48.2 °F 63% 29.91 in 10.0 mi WNW 5.8 mph - N/A   Overcast
5:55 PM 60.8 °F 46.4 °F 59% 29.91 in 10.0 mi NW 9.2 mph - N/A   Overcast
6:15 PM 60.8 °F 46.4 °F 59% 29.91 in 10.0 mi NW 8.1 mph - N/A   Overcast
6:35 PM 60.8 °F 46.4 °F 59% 29.92 in 10.0 mi WNW 9.2 mph - N/A   Overcast
6:55 PM 59.0 °F 46.4 °F 63% 29.92 in 10.0 mi NW 9.2 mph - N/A   Overcast
7:15 PM 59.0 °F 44.6 °F 59% 29.92 in 10.0 mi NW 8.1 mph - N/A   Overcast
7:35 PM 59.0 °F 42.8 °F 55% 29.92 in 10.0 mi WNW 8.1 mph - N/A   Overcast
7:55 PM 60.8 °F 42.8 °F 52% 29.91 in 10.0 mi WNW 6.9 mph - N/A   Overcast
8:15 PM 60.8 °F 42.8 °F 52% 29.91 in 10.0 mi WNW 9.2 mph - N/A   Overcast
8:35 PM 59.0 °F 42.8 °F 55% 29.91 in 10.0 mi NW 8.1 mph - N/A   Overcast
8:55 PM 59.0 °F 42.8 °F 55% 29.92 in 10.0 mi NW 3.5 mph - N/A   Overcast
9:15 PM 59.0 °F 42.8 °F 55% 29.91 in 10.0 mi WNW 4.6 mph - N/A   Overcast
9:35 PM 59.0 °F 42.8 °F 55% 29.92 in 10.0 mi WSW 3.5 mph - N/A   Overcast
9:55 PM 59.0 °F 42.8 °F 55% 29.92 in 10.0 mi WSW 5.8 mph - N/A   Overcast
10:15 PM 59.0 °F 42.8 °F 55% 29.92 in 10.0 mi WSW 6.9 mph - N/A   Overcast
10:35 PM 57.2 °F 44.6 °F 63% 29.91 in 10.0 mi SSW 6.9 mph - N/A   Overcast
10:55 PM 55.4 °F 44.6 °F 67% 29.91 in 10.0 mi SSW 6.9 mph - N/A   Overcast
11:15 PM 55.4 °F 44.6 °F 67% 29.91 in 10.0 mi SSW 5.8 mph - N/A   Overcast
11:35 PM 55.4 °F 44.6 °F 67% 29.91 in 10.0 mi SW 6.9 mph - N/A   Overcast
11:55 PM 55.4 °F 44.6 °F 67% 29.90 in 10.0 mi SW 8.1 mph - N/A   Overcast